Time;durP1;ratioP1;P1;durP2;ratioP2;P2;SDS_P1;SDS_P2;PMS_P1;PMS_P2;Temp;Humidity;BMP_temperature;BMP_pressure;BME280_temperature;BME280_humidity;BME280_pressure;Samples;Min_cycle;Max_cycle;Signal;HPM_P1;HPM_P2
2023/04/03 00:01:13;;;;;;;6.78;4.68;;;;;;;4.81;41.72;102512.53;5067995;28;20098;-79
2023/04/03 00:03:42;;;;;;;5.55;4.32;;;;;;;4.77;41.21;102508.19;5078161;28;20333;-79
2023/04/03 00:06:11;;;;;;;6.15;4.40;;;;;;;4.75;41.46;102513.66;5085330;28;20108;-79
2023/04/03 00:08:40;;;;;;;5.05;3.78;;;;;;;4.71;41.60;102522.88;5089180;28;20032;-79
2023/04/03 00:11:10;;;;;;;4.88;3.70;;;;;;;4.70;41.66;102512.06;5076052;22;20144;-75
2023/04/03 00:13:40;;;;;;;5.82;3.70;;;;;;;4.68;42.10;102513.94;5024421;28;20030;-75
2023/04/03 00:16:09;;;;;;;5.75;3.70;;;;;;;4.66;41.66;102518.53;5018479;28;20116;-75
2023/04/03 00:18:40;;;;;;;5.53;3.42;;;;;;;4.64;41.61;102515.88;4999670;28;20046;-75
2023/04/03 00:21:09;;;;;;;4.78;3.55;;;;;;;4.64;41.79;102520.41;5013906;28;20054;-75
2023/04/03 00:23:37;;;;;;;4.85;3.60;;;;;;;4.62;41.82;102520.50;5024027;28;20034;-75
2023/04/03 00:26:05;;;;;;;5.15;4.22;;;;;;;4.62;42.07;102514.19;5017186;28;20072;-74
2023/04/03 00:28:33;;;;;;;5.40;3.50;;;;;;;4.60;41.70;102511.53;5004269;28;20044;-75
2023/04/03 00:31:03;;;;;;;5.07;3.75;;;;;;;4.61;41.81;102516.00;5016632;28;20057;-75
2023/04/03 00:33:30;;;;;;;4.93;3.83;;;;;;;4.59;41.85;102515.16;5003971;28;20334;-75
2023/04/03 00:35:58;;;;;;;5.40;3.80;;;;;;;4.58;42.06;102510.69;5003498;28;20061;-76
2023/04/03 00:38:27;;;;;;;4.70;3.60;;;;;;;4.57;41.71;102513.44;5003099;28;20037;-76
2023/04/03 00:40:55;;;;;;;5.57;3.92;;;;;;;4.54;41.84;102511.75;5018683;28;20097;-75
2023/04/03 00:43:26;;;;;;;4.90;3.65;;;;;;;4.55;42.08;102510.81;5001652;28;20459;-75
2023/04/03 00:45:55;;;;;;;5.90;4.10;;;;;;;4.54;41.81;102512.66;5018470;28;20045;-75
2023/04/03 00:48:30;;;;;;;5.15;3.75;;;;;;;4.53;42.03;102508.16;5002211;28;20091;-77
2023/04/03 00:50:59;;;;;;;5.78;3.72;;;;;;;4.50;42.02;102512.78;5002666;28;20072;-74
2023/04/03 00:53:31;;;;;;;5.97;3.92;;;;;;;4.47;41.85;102510.22;5019438;28;20050;-75
2023/04/03 00:56:00;;;;;;;4.90;3.30;;;;;;;4.44;41.97;102513.03;5024400;28;20587;-75
2023/04/03 00:58:34;;;;;;;5.45;3.90;;;;;;;4.45;42.07;102510.25;5000540;28;20070;-74
2023/04/03 01:01:08;;;;;;;5.05;3.90;;;;;;;4.43;42.18;102517.56;4999587;28;20053;-75
2023/04/03 01:03:37;;;;;;;;;;;;;;;4.18;42.79;102511.22;5006627;28;20596;-76
2023/04/03 01:06:06;;;;;;;5.13;3.55;;;;;;;4.34;42.08;102511.56;5004431;28;19961;-74
2023/04/03 01:08:35;;;;;;;5.03;3.45;;;;;;;4.36;42.39;102515.13;5025228;28;20049;-75
2023/04/03 01:11:03;;;;;;;5.60;3.47;;;;;;;4.36;42.21;102518.72;5001922;28;20061;-75
2023/04/03 01:13:33;;;;;;;5.72;3.70;;;;;;;4.36;42.03;102517.81;5023090;28;20441;-74
2023/04/03 01:16:03;;;;;;;5.88;3.80;;;;;;;4.36;42.02;102517.81;5002966;28;20153;-75
2023/04/03 01:18:33;;;;;;;5.45;3.50;;;;;;;4.34;42.45;102515.16;5000609;28;20417;-74
2023/04/03 01:21:37;;;;;;;4.60;3.78;;;;;;;4.35;42.57;102513.34;5019738;28;20047;-76
2023/04/03 01:24:34;;;;;;;4.80;3.58;;;;;;;4.30;42.21;102516.22;4998863;28;20505;-74
2023/04/03 01:27:05;;;;;;;5.32;3.42;;;;;;;4.31;42.21;102517.09;4955544;28;20077;-74
2023/04/03 01:29:33;;;;;;;5.38;3.92;;;;;;;4.31;42.43;102520.69;5015126;28;20057;-74
2023/04/03 01:32:04;;;;;;;6.85;4.28;;;;;;;4.32;42.08;102517.03;4995822;28;20050;-74
2023/04/03 01:34:31;;;;;;;5.78;4.25;;;;;;;4.30;42.49;102518.94;4999061;28;20045;-75
2023/04/03 01:37:00;;;;;;;6.25;4.18;;;;;;;4.28;42.20;102523.53;5001089;28;20045;-75
2023/04/03 01:39:28;;;;;;;6.97;4.15;;;;;;;4.27;41.91;102521.75;5020049;28;20072;-74
2023/04/03 01:41:58;;;;;;;5.53;4.10;;;;;;;4.25;42.16;102518.19;5003010;28;20062;-74
2023/04/03 01:44:31;;;;;;;6.30;4.63;;;;;;;4.23;42.25;102525.47;4993945;28;20042;-74
2023/04/03 01:46:59;;;;;;;6.55;4.38;;;;;;;4.21;42.16;102524.69;5005195;28;20156;-75
2023/04/03 01:49:30;;;;;;;6.78;4.63;;;;;;;4.19;42.13;102526.53;4995043;28;20034;-74
2023/04/03 01:51:58;;;;;;;8.07;4.75;;;;;;;4.15;41.68;102519.44;4991365;28;20073;-74
2023/04/03 01:54:26;;;;;;;6.22;4.22;;;;;;;4.10;41.62;102519.63;5004166;28;20064;-74
2023/04/03 01:56:54;;;;;;;6.72;4.72;;;;;;;4.08;41.67;102515.19;4998341;28;20049;-74
2023/04/03 01:59:22;;;;;;;4.93;4.20;;;;;;;4.05;41.58;102520.72;4989891;28;20503;-74
2023/04/03 02:01:51;;;;;;;7.00;4.20;;;;;;;4.01;41.75;102525.34;5005758;28;20412;-74
2023/04/03 02:04:19;;;;;;;6.55;4.00;;;;;;;4.00;41.95;102522.69;4998359;28;20045;-74
2023/04/03 02:06:48;;;;;;;5.50;3.78;;;;;;;3.99;41.57;102526.31;5023708;28;20056;-74
2023/04/03 02:09:16;;;;;;;5.97;3.95;;;;;;;3.97;41.60;102525.50;5022065;28;20037;-75
2023/04/03 02:11:44;;;;;;;4.95;3.55;;;;;;;3.94;41.75;102529.19;5008698;28;20037;-75
2023/04/03 02:14:13;;;;;;;5.70;3.80;;;;;;;3.92;41.61;102519.34;5009699;28;20136;-75
2023/04/03 02:16:41;;;;;;;5.15;3.60;;;;;;;3.87;41.55;102519.50;5021115;28;20449;-74
2023/04/03 02:19:09;;;;;;;4.57;3.40;;;;;;;3.88;41.62;102524.00;5004001;28;20439;-74
2023/04/03 02:21:37;;;;;;;5.43;3.75;;;;;;;3.87;41.97;102518.63;5016670;28;20425;-74
2023/04/03 02:24:07;;;;;;;5.53;3.35;;;;;;;3.82;41.67;102526.88;5009270;28;20049;-74
2023/04/03 02:26:35;;;;;;;5.35;3.50;;;;;;;3.82;41.97;102528.69;5023616;28;20053;-75
2023/04/03 02:29:03;;;;;;;6.53;3.72;;;;;;;3.79;41.86;102524.28;5017619;28;20096;-75
2023/04/03 02:31:31;;;;;;;5.00;3.55;;;;;;;3.76;42.02;102524.38;4998844;28;20068;-74
2023/04/03 02:34:01;;;;;;;6.53;3.75;;;;;;;3.76;41.93;102524.38;5008289;28;20251;-75
2023/04/03 02:36:29;;;;;;;5.25;3.83;;;;;;;3.73;41.85;102528.06;5000836;28;20091;-74
2023/04/03 02:39:03;;;;;;;6.30;3.83;;;;;;;3.73;41.92;102528.06;5013109;28;20362;-74
2023/04/03 02:41:34;;;;;;;5.18;3.50;;;;;;;3.74;41.87;102531.66;5000432;28;20046;-74
2023/04/03 02:44:07;;;;;;;7.30;3.90;;;;;;;3.73;41.89;102538.00;5006138;28;20057;-74
2023/04/03 02:46:35;;;;;;;4.90;3.60;;;;;;;3.71;42.21;102535.38;4989906;28;20112;-74
2023/04/03 02:49:03;;;;;;;6.45;4.00;;;;;;;3.71;41.84;102534.50;5002520;28;20036;-74
2023/04/03 02:51:32;;;;;;;4.95;3.47;;;;;;;3.70;41.90;102539.03;4998306;28;20061;-74
2023/04/03 02:54:00;;;;;;;4.88;3.55;;;;;;;3.70;42.12;102528.19;5005744;28;20065;-74
2023/04/03 02:56:32;;;;;;;7.15;4.05;;;;;;;3.68;41.86;102531.88;5014646;28;20456;-73
2023/04/03 02:59:01;;;;;;;5.68;3.85;;;;;;;3.67;41.76;102530.09;5025166;28;20421;-73
2023/04/03 03:01:31;;;;;;;6.30;3.83;;;;;;;3.66;41.99;102529.22;4997374;28;20576;-74
2023/04/03 03:03:59;;;;;;;5.57;4.10;;;;;;;3.65;41.67;102537.38;4992969;28;20537;-73
2023/04/03 03:06:27;;;;;;;6.38;3.75;;;;;;;3.63;41.73;102532.03;4998795;28;20050;-74
2023/04/03 03:08:55;;;;;;;6.38;4.32;;;;;;;3.62;41.66;102541.09;4993889;28;20076;-73
2023/04/03 03:11:23;;;;;;;5.03;3.55;;;;;;;3.62;42.10;102540.19;4995524;28;20277;-74
2023/04/03 03:13:52;;;;;;;6.13;3.88;;;;;;;3.60;41.98;102542.94;5026042;28;20038;-74
2023/04/03 03:16:20;;;;;;;6.03;3.70;;;;;;;3.57;42.27;102537.63;5025123;28;20049;-73
2023/04/03 03:18:48;;;;;;;5.50;3.70;;;;;;;3.57;42.40;102539.44;5000944;28;20405;-74
2023/04/03 03:21:16;;;;;;;5.85;3.80;;;;;;;3.57;41.92;102539.44;4992585;28;20517;-74
2023/04/03 03:23:44;;;;;;;6.63;4.10;;;;;;;3.56;42.17;102541.28;5010973;28;20132;-74
2023/04/03 03:26:12;;;;;;;5.53;3.75;;;;;;;3.53;41.94;102538.66;5025777;28;20532;-73
2023/04/03 03:28:41;;;;;;;6.60;4.45;;;;;;;3.52;42.18;102542.31;5014380;28;20025;-73
2023/04/03 03:31:11;;;;;;;6.63;3.90;;;;;;;3.52;42.06;102534.19;5017775;28;20132;-74
2023/04/03 03:33:40;;;;;;;5.55;3.67;;;;;;;3.49;42.05;102536.09;5004935;28;20053;-73
2023/04/03 03:36:08;;;;;;;5.50;3.95;;;;;;;3.42;42.38;102534.50;5026448;28;20104;-73
2023/04/03 03:38:36;;;;;;;5.90;3.90;;;;;;;3.46;41.85;102530.78;5002816;28;20048;-73
2023/04/03 03:41:05;;;;;;;5.35;4.00;;;;;;;3.43;42.01;102529.06;5007748;28;20113;-74
2023/04/03 03:43:34;;;;;;;6.78;3.85;;;;;;;3.44;42.08;102541.66;4997779;28;20544;-73
2023/04/03 03:46:04;;;;;;;6.15;3.80;;;;;;;3.42;41.98;102531.81;4996213;28;20067;-74
2023/04/03 03:48:34;;;;;;;6.43;3.67;;;;;;;3.43;42.28;102530.88;4994541;28;20450;-74
2023/04/03 03:51:02;;;;;;;6.30;3.72;;;;;;;3.40;42.24;102527.31;4994114;28;20430;-74
2023/04/03 03:53:34;;;;;;;6.07;3.37;;;;;;;3.40;42.10;102523.72;4985901;28;20569;-74
2023/04/03 03:56:06;;;;;;;4.90;3.50;;;;;;;3.39;42.46;102528.28;5003627;28;21072;-75
2023/04/03 03:58:36;;;;;;;5.95;3.38;;;;;;;3.44;41.92;102527.25;5025904;28;20038;-73
2023/04/03 04:01:06;;;;;;;5.78;3.53;;;;;;;3.40;42.21;102513.78;5005898;28;20050;-74
2023/04/03 04:03:40;;;;;;;4.90;3.10;;;;;;;3.44;41.73;102532.66;5011577;28;20103;-73
2023/04/03 04:06:11;;;;;;;5.40;3.67;;;;;;;3.42;42.09;102529.09;5000262;28;20054;-73
2023/04/03 04:08:39;;;;;;;5.57;3.45;;;;;;;3.43;42.04;102537.19;5001946;28;20397;-74
2023/04/03 04:11:10;;;;;;;6.32;3.60;;;;;;;3.43;41.94;102534.47;5001717;28;20073;-74
2023/04/03 04:13:39;;;;;;;6.72;3.65;;;;;;;3.45;41.82;102538.03;5004260;28;20141;-73
2023/04/03 04:16:09;;;;;;;5.85;3.30;;;;;;;3.45;42.13;102540.72;5005315;28;20056;-74
2023/04/03 04:18:37;;;;;;;5.95;3.22;;;;;;;3.44;41.98;102535.34;5016589;28;20563;-74
2023/04/03 04:21:06;;;;;;;6.18;3.25;;;;;;;3.43;41.84;102545.28;4994588;28;20108;-74
2023/04/03 04:23:34;;;;;;;5.22;3.00;;;;;;;3.43;41.58;102552.53;5011710;28;20057;-74
2023/04/03 04:26:02;;;;;;;6.15;3.28;;;;;;;3.33;41.86;102541.09;5006751;28;20046;-73
2023/04/03 04:28:34;;;;;;;6.28;3.30;;;;;;;3.35;41.79;102542.81;5014369;28;20049;-74
2023/04/03 04:31:03;;;;;;;5.68;3.00;;;;;;;3.32;41.89;102548.31;5001513;28;20056;-74
2023/04/03 04:33:31;;;;;;;5.90;3.75;;;;;;;3.30;41.98;102539.34;5011502;28;20037;-74
2023/04/03 04:36:02;;;;;;;5.05;2.70;;;;;;;3.29;41.94;102537.56;4996418;28;20049;-73
2023/04/03 04:38:32;;;;;;;5.28;2.78;;;;;;;3.30;41.56;102544.75;4991914;28;20065;-74
2023/04/03 04:41:00;;;;;;;5.20;3.10;;;;;;;3.27;42.19;102539.44;5008661;28;20072;-73
2023/04/03 04:43:28;;;;;;;4.20;2.85;;;;;;;3.25;41.72;102544.00;5003661;28;20147;-74
2023/04/03 04:46:04;;;;;;;5.70;3.03;;;;;;;3.24;41.37;102557.56;5003009;28;20451;-74
2023/04/03 04:48:36;;;;;;;4.85;2.85;;;;;;;3.18;41.90;102553.25;5006255;28;20060;-74
2023/04/03 04:51:05;;;;;;;6.28;3.00;;;;;;;3.17;41.70;102564.09;5004730;28;20121;-74
2023/04/03 04:53:37;;;;;;;4.97;2.72;;;;;;;3.16;41.64;102563.22;5009017;28;20073;-73
2023/04/03 04:56:05;;;;;;;4.53;2.90;;;;;;;3.15;41.84;102566.88;5003252;28;20077;-73
2023/04/03 04:58:35;;;;;;;5.43;2.90;;;;;;;3.13;42.12;102573.25;5006007;28;20054;-73
2023/04/03 05:01:05;;;;;;;5.20;2.72;;;;;;;3.14;42.01;102578.63;5016996;28;20042;-74
2023/04/03 05:03:36;;;;;;;;;;;;;;;2.91;42.27;102578.38;5034260;28;20432;-73
2023/04/03 05:06:05;;;;;;;5.60;2.70;;;;;;;3.10;41.97;102576.03;5014250;28;19931;-73
2023/04/03 05:08:34;;;;;;;4.53;2.65;;;;;;;3.11;41.98;102583.22;4996012;28;20045;-74
2023/04/03 05:11:05;;;;;;;4.47;2.75;;;;;;;3.10;41.75;102582.34;5018485;28;20055;-73
2023/04/03 05:13:34;;;;;;;6.05;2.40;;;;;;;3.11;41.69;102580.53;5024313;28;20139;-73
2023/04/03 05:16:02;;;;;;;4.82;2.75;;;;;;;3.08;41.96;102581.47;5001931;28;20132;-74
2023/04/03 05:18:30;;;;;;;4.32;2.70;;;;;;;3.08;42.07;102591.41;4999833;28;20088;-74
2023/04/03 05:21:02;;;;;;;4.50;2.53;;;;;;;3.07;42.21;102589.66;5016015;28;20100;-74
2023/04/03 05:23:31;;;;;;;5.25;3.78;;;;;;;2.99;42.10;102595.28;5007458;28;20441;-74
2023/04/03 05:26:01;;;;;;;4.63;2.88;;;;;;;2.99;41.95;102590.75;4996553;28;20042;-75
2023/04/03 05:28:32;;;;;;;7.13;3.00;;;;;;;3.00;42.03;102595.22;5002195;28;20046;-74
2023/04/03 05:31:00;;;;;;;4.80;2.90;;;;;;;2.96;42.09;102592.66;5016050;28;20045;-75
2023/04/03 05:33:34;;;;;;;5.35;2.80;;;;;;;2.95;41.96;102596.31;5024585;28;20049;-73
2023/04/03 05:36:06;;;;;;;4.88;2.80;;;;;;;2.96;42.33;102590.84;5010893;28;20064;-73
2023/04/03 05:38:39;;;;;;;5.63;2.80;;;;;;;2.97;42.32;102603.44;5011292;28;20053;-74
2023/04/03 05:41:08;;;;;;;5.35;2.67;;;;;;;2.93;42.40;102600.84;5005484;28;20108;-75
2023/04/03 05:43:38;;;;;;;5.18;3.00;;;;;;;2.94;42.31;102608.94;5005115;28;20137;-74
2023/04/03 05:46:12;;;;;;;5.38;2.88;;;;;;;2.96;42.14;102614.31;5001855;28;20120;-74
2023/04/03 05:48:42;;;;;;;4.35;2.63;;;;;;;2.96;42.57;102617.91;5016782;28;20038;-75
2023/04/03 05:51:17;;;;;;;5.22;2.92;;;;;;;2.97;42.34;102625.09;5016760;28;20054;-74
2023/04/03 05:53:48;;;;;;;6.10;2.72;;;;;;;2.99;42.64;102627.72;5001733;28;20053;-72
2023/04/03 05:56:16;;;;;;;4.85;2.42;;;;;;;3.00;42.22;102634.91;5022514;28;20528;-73
2023/04/03 05:58:45;;;;;;;5.15;2.70;;;;;;;3.00;42.49;102632.22;5024840;28;20523;-76
2023/04/03 06:01:13;;;;;;;4.53;2.50;;;;;;;2.96;42.52;102636.84;5007053;28;20509;-75
2023/04/03 06:03:41;;;;;;;5.90;2.75;;;;;;;3.00;42.51;102633.09;5014089;28;20033;-74
2023/04/03 06:06:13;;;;;;;5.95;2.78;;;;;;;3.01;42.55;102644.81;5006633;28;20491;-74
2023/04/03 06:08:43;;;;;;;5.22;2.78;;;;;;;3.05;42.44;102635.69;5009141;28;20041;-74
2023/04/03 06:11:12;;;;;;;4.40;2.72;;;;;;;3.03;42.45;102649.25;4997161;28;20439;-74
2023/04/03 06:13:40;;;;;;;6.13;2.70;;;;;;;3.03;43.15;102646.56;4996007;28;20111;-74
2023/04/03 06:16:10;;;;;;;3.80;2.35;;;;;;;3.15;43.12;102649.84;5005063;28;20485;-74
2023/04/03 06:18:41;;;;;;;5.80;2.80;;;;;;;3.15;43.38;102645.34;5017565;28;20055;-74
2023/04/03 06:21:10;;;;;;;4.88;2.60;;;;;;;3.26;43.22;102647.72;5002872;28;20053;-75
2023/04/03 06:23:37;;;;;;;5.70;2.70;;;;;;;3.36;43.35;102642.03;5008022;28;20061;-75
2023/04/03 06:26:06;;;;;;;5.28;2.58;;;;;;;3.53;43.37;102652.38;5004286;28;20045;-75
2023/04/03 06:28:34;;;;;;;4.82;2.25;;;;;;;3.62;43.05;102645.78;5013580;28;20128;-75
2023/04/03 06:33:45;;;;;;;4.90;2.55;;;;;;;3.85;42.84;102658.63;4997366;28;20500;-72
2023/04/03 06:36:13;;;;;;;3.90;2.10;;;;;;;3.95;42.73;102652.88;5007525;28;20122;-72
2023/04/03 06:38:41;;;;;;;3.97;2.08;;;;;;;4.05;42.73;102646.25;4995548;28;21949;-72
2023/04/03 06:41:09;;;;;;;5.38;2.72;;;;;;;4.11;42.38;102643.31;4991394;28;20034;-72
2023/04/03 06:43:37;;;;;;;4.18;2.00;;;;;;;4.24;42.65;102646.50;5003157;28;20087;-72
2023/04/03 06:46:05;;;;;;;6.15;2.47;;;;;;;4.30;42.44;102643.63;5003722;28;20049;-72
2023/04/03 06:48:33;;;;;;;4.22;2.45;;;;;;;4.37;42.23;102644.28;5000364;28;20100;-70
2023/04/03 06:51:02;;;;;;;4.00;2.20;;;;;;;4.43;41.76;102647.69;5004673;28;20047;-73
2023/04/03 06:53:30;;;;;;;6.22;2.45;;;;;;;4.44;42.03;102644.03;4998937;28;20140;-73
2023/04/03 06:55:58;;;;;;;3.88;2.20;;;;;;;4.51;42.05;102642.88;5003299;28;20401;-73
2023/04/03 06:58:26;;;;;;;5.07;2.33;;;;;;;4.51;42.01;102639.28;4972633;28;20128;-74
2023/04/03 07:00:54;;;;;;;4.22;2.13;;;;;;;4.59;42.32;102641.72;4996053;28;20134;-74
2023/04/03 07:03:22;;;;;;;5.38;2.42;;;;;;;4.61;42.39;102642.56;4996750;28;20041;-74
2023/04/03 07:05:50;;;;;;;5.90;2.65;;;;;;;4.65;41.90;102645.13;4994773;28;20050;-74
2023/04/03 07:08:19;;;;;;;4.68;2.35;;;;;;;4.70;42.00;102650.41;5000135;28;20100;-74
2023/04/03 07:10:47;;;;;;;3.88;1.90;;;;;;;4.74;42.51;102662.91;4998806;28;20050;-74
2023/04/03 07:13:15;;;;;;;5.30;2.42;;;;;;;4.84;42.57;102667.97;5004822;28;20144;-74
2023/04/03 07:15:43;;;;;;;6.70;2.80;;;;;;;4.93;42.19;102659.50;4994510;28;20050;-74
2023/04/03 07:18:11;;;;;;;5.43;2.35;;;;;;;5.10;42.51;102666.16;4993103;28;20061;-74
2023/04/03 07:20:40;;;;;;;4.70;2.03;;;;;;;5.31;42.66;102670.81;4992446;28;20062;-74
2023/04/03 07:23:07;;;;;;;6.30;2.35;;;;;;;5.55;42.45;102675.34;4994964;28;20584;-74
2023/04/03 07:25:37;;;;;;;3.88;2.03;;;;;;;5.67;41.23;102666.72;4999503;28;20418;-74
2023/04/03 07:28:05;;;;;;;3.97;2.00;;;;;;;5.82;41.13;102667.97;4995786;28;20042;-71
2023/04/03 07:30:33;;;;;;;4.57;2.10;;;;;;;6.00;41.02;102661.81;4990544;28;20081;-74
2023/04/03 07:33:01;;;;;;;4.88;1.95;;;;;;;6.18;40.94;102670.19;4979819;28;20048;-73
2023/04/03 07:35:29;;;;;;;3.95;1.90;;;;;;;6.29;40.23;102665.16;4976085;28;20053;-73
2023/04/03 07:37:57;;;;;;;3.63;2.17;;;;;;;6.37;39.24;102671.16;4988099;28;20446;-73
2023/04/03 07:40:26;;;;;;;3.90;2.00;;;;;;;6.44;38.95;102670.88;4978021;28;20377;-74
2023/04/03 07:42:56;;;;;;;4.60;1.95;;;;;;;6.55;38.32;102667.69;4998735;28;20066;-65
2023/04/03 07:45:24;;;;;;;4.60;2.13;;;;;;;6.58;38.78;102674.84;4996478;28;20059;-63
2023/04/03 07:47:52;;;;;;;5.22;2.17;;;;;;;6.63;38.24;102675.53;4984934;28;20121;-67
2023/04/03 07:50:20;;;;;;;4.25;1.75;;;;;;;6.63;38.14;102680.97;4967165;28;20070;-69
2023/04/03 07:52:50;;;;;;;4.10;2.08;;;;;;;6.62;37.83;102680.09;4991006;28;20165;-69
2023/04/03 07:55:18;;;;;;;4.88;1.80;;;;;;;6.65;37.35;102676.34;4973706;28;20039;-69
2023/04/03 07:57:46;;;;;;;3.90;1.80;;;;;;;6.68;37.44;102681.69;4984538;28;20054;-69
2023/04/03 08:00:17;;;;;;;3.88;1.77;;;;;;;6.74;36.75;102684.13;4980582;28;20121;-69
2023/04/03 08:02:50;;;;;;;4.97;1.80;;;;;;;6.75;37.22;102683.22;4978302;28;20048;-69
2023/04/03 08:05:18;;;;;;;4.82;2.17;;;;;;;6.74;36.65;102673.25;4978558;28;20517;-70
2023/04/03 08:07:46;;;;;;;3.95;1.98;;;;;;;6.76;36.29;102676.84;4985315;28;20090;-69
2023/04/03 08:10:15;;;;;;;3.95;1.90;;;;;;;6.73;35.72;102683.25;4990648;28;20042;-69
2023/04/03 08:12:43;;;;;;;3.13;1.52;;;;;;;6.77;36.35;102684.06;4988331;28;20050;-69
2023/04/03 08:15:11;;;;;;;4.53;1.92;;;;;;;6.84;36.37;102696.44;5001783;28;20460;-69
2023/04/03 08:17:40;;;;;;;3.15;1.48;;;;;;;6.89;35.62;102690.78;5006525;28;20042;-69
2023/04/03 08:20:10;;;;;;;2.65;1.30;;;;;;;6.95;35.98;102685.06;5004883;28;20054;-69
2023/04/03 08:22:38;;;;;;;3.58;1.50;;;;;;;6.96;35.88;102690.44;4995255;28;20046;-70
2023/04/03 08:25:06;;;;;;;4.72;1.55;;;;;;;7.05;36.08;102687.31;4999354;28;20528;-69
2023/04/03 08:27:35;;;;;;;4.35;1.60;;;;;;;7.12;35.77;102682.50;4989763;28;20054;-69
2023/04/03 08:30:03;;;;;;;2.92;1.33;;;;;;;7.19;35.54;102675.81;5001532;28;20409;-69
2023/04/03 08:32:31;;;;;;;4.57;1.88;;;;;;;7.18;35.20;102687.69;4998192;28;20045;-69
2023/04/03 08:35:01;;;;;;;4.18;1.77;;;;;;;7.23;33.85;102685.63;5007287;28;20057;-69
2023/04/03 08:37:29;;;;;;;2.47;1.35;;;;;;;7.18;33.49;102682.25;5005433;28;20053;-68
2023/04/03 08:39:57;;;;;;;3.15;1.40;;;;;;;7.24;33.84;102684.69;4993722;28;20041;-68
2023/04/03 08:42:41;;;;;;;4.50;1.92;;;;;;;7.16;28.92;102681.41;4997583;28;20566;-69
2023/04/03 08:45:13;;;;;;;3.40;1.40;;;;;;;7.22;32.33;102689.31;4990264;28;20497;-69
2023/04/03 08:47:46;;;;;;;4.63;1.70;;;;;;;7.29;32.41;102679.03;5000954;28;20046;-69
2023/04/03 08:50:20;;;;;;;3.58;1.63;;;;;;;7.27;31.04;102678.22;5002354;28;20045;-69
2023/04/03 08:52:51;;;;;;;2.50;1.10;;;;;;;7.34;32.73;102677.88;4977630;28;20138;-69
2023/04/03 08:55:25;;;;;;;3.47;1.23;;;;;;;7.42;32.16;102683.88;4951477;28;20058;-69
2023/04/03 08:58:00;;;;;;;3.08;1.38;;;;;;;7.46;31.87;102681.88;4977458;28;20595;-69
2023/04/03 09:00:33;;;;;;;4.90;1.40;;;;;;;7.38;30.92;102684.06;4973573;28;20126;-69
2023/04/03 09:03:01;;;;;;;4.40;1.50;;;;;;;7.38;32.73;102681.31;4985949;28;20039;-69
2023/04/03 09:05:45;;;;;;;3.45;1.45;;;;;;;7.45;30.69;102685.53;4987960;28;20047;-69
2023/04/03 09:08:25;;;;;;;3.53;1.40;;;;;;;7.50;31.03;102689.84;4985674;28;20101;-69
2023/04/03 09:11:08;;;;;;;2.55;1.38;;;;;;;7.52;31.30;102689.75;4984576;28;20046;-69
2023/04/03 09:13:46;;;;;;;4.00;1.30;;;;;;;7.52;31.48;102698.81;4996011;28;20057;-69
2023/04/03 09:16:21;;;;;;;3.42;1.50;;;;;;;7.55;31.17;102689.63;5002535;28;20050;-69
2023/04/03 09:18:58;;;;;;;2.30;1.27;;;;;;;7.62;31.24;102690.22;4995810;28;20493;-69
2023/04/03 09:21:32;;;;;;;1.98;1.08;;;;;;;7.70;31.54;102691.63;5005729;28;20089;-69
2023/04/03 09:24:03;;;;;;;4.18;1.50;;;;;;;7.74;32.03;102695.13;5004586;28;20089;-69
2023/04/03 09:26:35;;;;;;;3.78;1.27;;;;;;;7.78;32.38;102686.72;5005381;28;20125;-69
2023/04/03 09:29:08;;;;;;;4.88;1.60;;;;;;;7.69;28.99;102683.53;5003120;28;20561;-69
2023/04/03 09:31:38;;;;;;;2.65;1.38;;;;;;;7.80;31.94;102686.63;4990607;28;20050;-69
2023/04/03 09:34:18;;;;;;;3.95;1.40;;;;;;;7.88;31.47;102681.72;4984982;28;20509;-69
2023/04/03 09:36:49;;;;;;;2.85;1.27;;;;;;;7.91;30.88;102684.31;4977022;28;20060;-68
2023/04/03 09:39:20;;;;;;;3.17;1.27;;;;;;;7.96;31.79;102684.97;4977359;28;20093;-68
2023/04/03 09:42:15;;;;;;;2.58;1.10;;;;;;;8.02;30.52;102684.66;4985653;28;20042;-69
2023/04/03 09:44:53;;;;;;;2.30;1.20;;;;;;;8.04;31.65;102682.75;4976054;28;20086;-68
2023/04/03 09:47:26;;;;;;;3.25;1.38;;;;;;;8.05;28.67;102681.78;4997850;28;20133;-69
2023/04/03 09:50:17;;;;;;;5.07;1.67;;;;;;;8.12;29.45;102682.38;4993097;28;20133;-71
2023/04/03 09:52:48;;;;;;;2.67;1.25;;;;;;;8.17;30.74;102691.28;4998714;28;20045;-69
2023/04/03 09:55:17;;;;;;;4.38;1.50;;;;;;;8.12;30.38;102680.53;4994247;28;20094;-69
2023/04/03 09:57:48;;;;;;;2.63;1.20;;;;;;;8.21;31.01;102681.97;4968050;28;20100;-70
2023/04/03 10:00:23;;;;;;;2.92;1.50;;;;;;;8.22;29.63;102675.56;4974356;28;20437;-69
2023/04/03 10:02:53;;;;;;;3.15;1.38;;;;;;;8.18;29.99;102672.09;4983380;28;20046;-69
2023/04/03 10:05:34;;;;;;;3.90;1.40;;;;;;;8.25;28.52;102665.38;4982897;28;20054;-70
2023/04/03 10:08:20;;;;;;;4.57;1.55;;;;;;;8.19;27.25;102667.50;4976659;28;20035;-70
2023/04/03 10:11:05;;;;;;;4.20;1.88;;;;;;;8.20;28.98;102655.66;4978777;28;20046;-70
2023/04/03 10:13:33;;;;;;;3.00;1.30;;;;;;;8.13;28.84;102662.34;4983923;28;20070;-70
2023/04/03 10:16:19;;;;;;;4.20;1.60;;;;;;;8.17;28.56;102653.09;4993820;28;20042;-70
2023/04/03 10:19:08;;;;;;;2.95;1.50;;;;;;;8.24;27.94;102651.81;5001721;28;20108;-70
2023/04/03 10:21:45;;;;;;;3.50;1.58;;;;;;;8.31;29.06;102661.47;4996203;28;20086;-71
2023/04/03 10:24:20;;;;;;;4.53;1.60;;;;;;;8.30;29.00;102654.25;4973270;28;20101;-70
2023/04/03 10:26:58;;;;;;;2.28;1.50;;;;;;;8.42;28.39;102663.66;4962605;28;20038;-70
2023/04/03 10:29:37;;;;;;;3.17;1.42;;;;;;;8.29;25.81;102652.47;4981869;28;20046;-70
2023/04/03 10:32:22;;;;;;;2.90;1.10;;;;;;;8.45;28.68;102652.59;4997301;28;20107;-71
2023/04/03 10:34:56;;;;;;;2.45;1.20;;;;;;;8.50;29.36;102664.16;5005432;28;20058;-71
2023/04/03 10:37:40;;;;;;;2.50;1.30;;;;;;;8.57;28.95;102658.31;5001194;28;20053;-70
2023/04/03 10:40:19;;;;;;;3.65;1.23;;;;;;;8.63;28.25;102658.00;4995235;28;20034;-69
2023/04/03 10:42:51;;;;;;;4.20;1.52;;;;;;;8.54;27.29;102650.28;4998504;28;20505;-69
2023/04/03 10:45:24;;;;;;;3.03;1.40;;;;;;;8.63;28.45;102648.94;4984681;28;20062;-69
2023/04/03 10:48:02;;;;;;;3.08;1.27;;;;;;;8.74;27.92;102646.53;4996937;28;20112;-69
2023/04/03 10:50:44;;;;;;;2.65;1.10;;;;;;;8.85;28.53;102640.50;4994426;28;20064;-69
2023/04/03 10:53:23;;;;;;;1.67;0.80;;;;;;;8.91;27.08;102643.81;5004632;28;20112;-69
2023/04/03 10:55:59;;;;;;;2.95;1.20;;;;;;;8.95;28.28;102653.59;5000975;28;20099;-69
2023/04/03 10:58:33;;;;;;;2.13;0.88;;;;;;;9.03;27.70;102637.69;4999310;28;20148;-69
2023/04/03 11:01:07;;;;;;;1.83;0.80;;;;;;;9.07;27.88;102630.25;4999692;28;20496;-69
2023/04/03 11:03:40;;;;;;;1.45;0.80;;;;;;;9.09;28.10;102637.38;5000852;28;20308;-69
2023/04/03 11:06:11;;;;;;;2.15;0.80;;;;;;;9.15;28.39;102627.09;5001582;28;20046;-69
2023/04/03 11:08:45;;;;;;;2.78;1.00;;;;;;;9.20;27.28;102633.19;4998980;28;20030;-69
2023/04/03 11:11:18;;;;;;;1.63;0.90;;;;;;;9.25;27.87;102625.59;4998645;28;20054;-69
2023/04/03 11:13:50;;;;;;;;;;;;;;;8.98;27.45;102612.50;5000531;28;20039;-69
2023/04/03 11:16:24;;;;;;;1.35;0.80;;;;;;;9.28;27.42;102599.03;5007260;28;20431;-69
2023/04/03 11:18:57;;;;;;;2.55;1.00;;;;;;;9.36;27.84;102606.78;5001147;28;20104;-69
2023/04/03 11:21:30;;;;;;;2.15;0.98;;;;;;;9.40;27.63;102609.31;4998050;28;20046;-69
2023/04/03 11:24:00;;;;;;;2.58;0.98;;;;;;;9.45;27.95;102600.84;5000410;28;20092;-69
2023/04/03 11:26:33;;;;;;;1.63;0.80;;;;;;;9.51;27.45;102599.63;4995405;28;20058;-69
2023/04/03 11:29:07;;;;;;;1.30;0.90;;;;;;;9.57;27.51;102597.47;4996257;28;20154;-69
2023/04/03 11:31:49;;;;;;;1.58;0.85;;;;;;;9.51;24.05;102597.78;4996779;28;20054;-69
2023/04/03 11:34:34;;;;;;;1.67;0.80;;;;;;;9.57;25.33;102597.47;4996256;28;20034;-69
2023/04/03 11:37:06;;;;;;;1.60;0.82;;;;;;;9.62;26.96;102595.34;5004855;28;20050;-69
2023/04/03 11:39:37;;;;;;;1.40;0.77;;;;;;;9.67;26.58;102595.06;5011301;28;20108;-69
2023/04/03 11:42:23;;;;;;;1.33;0.70;;;;;;;9.73;24.74;102592.00;5006794;28;20053;-69
2023/04/03 11:44:51;;;;;;;2.13;0.80;;;;;;;9.74;26.64;102589.16;5005814;28;20406;-69
2023/04/03 11:47:48;;;;;;;1.90;1.02;;;;;;;9.81;25.13;102582.41;4998792;28;20050;-69
2023/04/03 11:50:33;;;;;;;2.40;1.02;;;;;;;9.83;25.23;102583.16;5005906;28;20409;-69
2023/04/03 11:53:03;;;;;;;2.00;0.82;;;;;;;9.88;26.68;102574.72;5007028;28;20049;-69
2023/04/03 11:55:46;;;;;;;3.08;1.10;;;;;;;9.89;22.23;102583.81;5006435;28;20049;-68